Mogadore, Ohio
Current Conditions -  °F | °C
As of 8:54 PM on Saturday 22 Nov 2014 (Local Time) from KAKR Reporting Station
Light Rain Light Rain  
Wind Chill: 41°   Ceiling: 4200
Heat Index: 47°   Visibility: 10mi
Dew Point: 33°   Wind: 13mph
Humidity: 59%   Direction: 190°S
Pressure: 30.05"   Gusts: NA
Location:  41.05°N, 81.4°W
Report Text: KAKR 230154Z AUTO 19011KT 10SM -RA OVC042 08/01 A3005 RMK AO2 RAB43 SLP182 P0000 T00830006
Loading
Personal Weather Stations






























Interactive Weather Map New forecast layout! Learn more

10-Day Weather Forecast

Advertisements
Track Severe Weather on mobile